Time;durP1;ratioP1;P1;durP2;ratioP2;P2;SDS_P1;SDS_P2;PMS_P1;PMS_P2;Temp;Humidity;BMP_temperature;BMP_pressure;BME280_temperature;BME280_humidity;BME280_pressure;Samples;Min_cycle;Max_cycle;Signal;HPM_P1;HPM_P2
2021/05/25 00:01:43;;;;;;;0.40;0.40;;;11.10;99.90;;;;;;4989805;28;21063;-78
2021/05/25 00:04:09;;;;;;;0.60;0.50;;;11.00;99.90;;;;;;4990305;28;20211;-79
2021/05/25 00:06:35;;;;;;;0.47;0.47;;;10.90;99.90;;;;;;4989463;28;20188;-78
2021/05/25 00:09:01;;;;;;;0.40;0.40;;;11.00;99.90;;;;;;4989263;28;20211;-79
2021/05/25 00:11:27;;;;;;;1.07;0.50;;;10.90;99.90;;;;;;4987510;28;20247;-78
2021/05/25 00:13:53;;;;;;;0.43;0.40;;;10.90;99.90;;;;;;4986863;28;20224;-77
2021/05/25 00:16:19;;;;;;;0.40;0.40;;;10.70;99.90;;;;;;4986947;28;20234;-78
2021/05/25 00:18:45;;;;;;;0.50;0.40;;;10.60;99.90;;;;;;4986423;28;20180;-78
2021/05/25 00:21:10;;;;;;;0.50;0.50;;;10.60;99.90;;;;;;5003540;28;20189;-79
2021/05/25 00:23:36;;;;;;;1.43;0.50;;;10.60;99.90;;;;;;4987787;28;20655;-79
2021/05/25 00:26:02;;;;;;;0.40;0.40;;;10.50;99.90;;;;;;5003752;28;20192;-78
2021/05/25 00:28:27;;;;;;;1.50;0.50;;;10.40;99.90;;;;;;4988490;28;20199;-78
2021/05/25 00:30:53;;;;;;;0.43;0.43;;;10.20;99.90;;;;;;4986745;28;20204;-79
2021/05/25 00:33:19;;;;;;;0.60;0.50;;;10.20;99.90;;;;;;4991666;28;20266;-78
2021/05/25 00:35:44;;;;;;;1.80;0.50;;;10.20;99.90;;;;;;4991477;28;20268;-79
2021/05/25 00:38:11;;;;;;;0.37;0.33;;;10.10;99.90;;;;;;4991296;28;20565;-79
2021/05/25 00:40:37;;;;;;;0.40;0.40;;;9.90;99.90;;;;;;4992732;28;20219;-78
2021/05/25 00:43:03;;;;;;;0.50;0.50;;;10.00;99.90;;;;;;4981438;28;20221;-80
2021/05/25 00:45:28;;;;;;;0.40;0.40;;;10.00;99.90;;;;;;4991587;28;21023;-80
2021/05/25 00:47:54;;;;;;;6.93;0.93;;;10.00;99.90;;;;;;5007922;28;20267;-80
2021/05/25 00:50:24;;;;;;;0.30;0.30;;;10.00;99.90;;;;;;4991383;28;20207;-79
2021/05/25 00:52:52;;;;;;;0.50;0.50;;;10.00;99.90;;;;;;4991252;28;20228;-80
2021/05/25 00:55:25;;;;;;;0.40;0.40;;;10.00;99.90;;;;;;4999330;28;20530;-80
2021/05/25 00:57:53;;;;;;;0.70;0.50;;;10.00;99.90;;;;;;4991014;28;20183;-79
2021/05/25 01:00:22;;;;;;;0.40;0.40;;;9.90;99.90;;;;;;4992120;28;21212;-79
2021/05/25 01:02:48;;;;;;;0.40;0.30;;;9.90;99.90;;;;;;4992094;28;20263;-79
2021/05/25 01:05:15;;;;;;;0.40;0.40;;;10.00;99.90;;;;;;4991155;28;20235;-79
2021/05/25 01:07:42;;;;;;;0.50;0.40;;;9.90;99.90;;;;;;4991949;28;20191;-79
2021/05/25 01:10:08;;;;;;;0.40;0.40;;;10.00;99.90;;;;;;4991754;28;20619;-79
2021/05/25 01:12:39;;;;;;;0.30;0.30;;;10.00;99.90;;;;;;4991659;28;20661;-78
2021/05/25 01:15:09;;;;;;;1.10;0.67;;;10.10;99.90;;;;;;4991506;28;20194;-79
2021/05/25 01:17:35;;;;;;;0.63;0.40;;;10.10;99.90;;;;;;4991345;28;20654;-78
2021/05/25 01:20:02;;;;;;;1.90;0.50;;;10.10;99.90;;;;;;5006467;28;21155;-77
2021/05/25 01:22:28;;;;;;;0.60;0.50;;;10.20;99.90;;;;;;4991024;28;20725;-80
2021/05/25 01:24:54;;;;;;;0.40;0.40;;;10.40;99.90;;;;;;5006265;28;20256;-79
2021/05/25 01:27:20;;;;;;;0.40;0.40;;;10.40;99.90;;;;;;4990763;28;20180;-79
2021/05/25 01:29:45;;;;;;;0.50;0.50;;;10.50;99.90;;;;;;5006368;28;20615;-79
2021/05/25 01:32:11;;;;;;;0.63;0.60;;;10.50;99.90;;;;;;4991445;28;20283;-77
2021/05/25 01:34:37;;;;;;;0.70;0.33;;;10.60;99.90;;;;;;4990749;28;20223;-80
2021/05/25 01:37:04;;;;;;;0.80;0.50;;;10.50;99.90;;;;;;5006212;28;20176;-78
2021/05/25 01:39:30;;;;;;;0.40;0.40;;;10.60;99.90;;;;;;4991748;28;20250;-77
2021/05/25 01:41:56;;;;;;;0.80;0.60;;;10.50;99.90;;;;;;5006177;28;20681;-78
2021/05/25 01:44:21;;;;;;;0.90;0.50;;;10.50;99.90;;;;;;4989988;28;20204;-79
2021/05/25 01:46:48;;;;;;;0.77;0.40;;;10.40;99.90;;;;;;4992046;28;20565;-79
2021/05/25 01:49:19;;;;;;;0.30;0.27;;;10.40;99.90;;;;;;4990593;28;20186;-76
2021/05/25 01:51:49;;;;;;;0.57;0.50;;;10.40;99.90;;;;;;4990484;28;20287;-78
2021/05/25 01:54:16;;;;;;;0.47;0.37;;;10.50;99.90;;;;;;4991112;28;20298;-80
2021/05/25 01:56:42;;;;;;;0.40;0.40;;;10.60;99.90;;;;;;4990850;28;20180;-78
2021/05/25 01:59:08;;;;;;;0.63;0.40;;;10.60;99.90;;;;;;5004601;28;20182;-79
2021/05/25 02:01:34;;;;;;;0.43;0.40;;;10.70;99.90;;;;;;4988935;28;20219;-79
2021/05/25 02:03:59;;;;;;;0.30;0.30;;;10.70;99.90;;;;;;4988580;28;20720;-78
2021/05/25 02:06:25;;;;;;;0.30;0.30;;;10.80;99.90;;;;;;4988371;28;20274;-78
2021/05/25 02:08:51;;;;;;;0.43;0.43;;;10.80;99.90;;;;;;5004054;28;20180;-78
2021/05/25 02:11:16;;;;;;;0.30;0.30;;;11.00;99.90;;;;;;4988125;28;20202;-79
2021/05/25 02:13:42;;;;;;;0.43;0.30;;;11.00;99.90;;;;;;4988123;28;20768;-78
2021/05/25 02:16:13;;;;;;;0.40;0.40;;;11.10;99.90;;;;;;4988296;28;20638;-79
2021/05/25 02:18:43;;;;;;;0.30;0.30;;;11.00;99.90;;;;;;4986980;28;20173;-79
2021/05/25 02:21:09;;;;;;;0.60;0.60;;;11.10;99.90;;;;;;4996695;28;20184;-79
2021/05/25 02:23:35;;;;;;;1.17;0.50;;;11.10;99.90;;;;;;4987127;28;20283;-78
2021/05/25 02:26:01;;;;;;;0.40;0.40;;;11.10;99.90;;;;;;5003190;28;20275;-79
2021/05/25 02:28:27;;;;;;;0.40;0.40;;;11.10;99.90;;;;;;5003433;28;20219;-78
2021/05/25 02:30:52;;;;;;;0.40;0.30;;;11.10;99.90;;;;;;4988923;28;20720;-77
2021/05/25 02:33:20;;;;;;;0.30;0.30;;;11.10;99.90;;;;;;4988848;28;20337;-77
2021/05/25 02:35:48;;;;;;;0.67;0.40;;;11.10;99.90;;;;;;5002602;28;20188;-78
2021/05/25 02:38:14;;;;;;;0.50;0.30;;;11.10;99.90;;;;;;4988813;28;20181;-79
2021/05/25 02:40:45;;;;;;;0.40;0.40;;;11.00;99.90;;;;;;5003120;28;20665;-79
2021/05/25 02:43:12;;;;;;;0.30;0.30;;;11.00;99.90;;;;;;5002951;28;20200;-79
2021/05/25 02:45:38;;;;;;;0.50;0.50;;;11.00;99.90;;;;;;4988158;28;20184;-78
2021/05/25 02:48:05;;;;;;;0.40;0.40;;;11.00;99.90;;;;;;4988011;28;20239;-79
2021/05/25 02:50:31;;;;;;;0.30;0.30;;;10.90;99.90;;;;;;4987068;28;20208;-80
2021/05/25 02:52:57;;;;;;;0.50;0.50;;;10.90;99.90;;;;;;4989065;28;20207;-80
2021/05/25 02:55:25;;;;;;;0.80;0.50;;;10.90;99.90;;;;;;4988768;28;20239;-78
2021/05/25 02:57:51;;;;;;;0.60;0.30;;;10.90;99.90;;;;;;4987266;28;20177;-78
2021/05/25 03:00:20;;;;;;;0.40;0.40;;;10.80;99.90;;;;;;5004291;28;20188;-79
2021/05/25 03:02:46;;;;;;;0.40;0.40;;;10.80;99.90;;;;;;5003710;28;20204;-80
2021/05/25 03:05:12;;;;;;;0.20;0.20;;;10.70;99.90;;;;;;5003306;28;20195;-79
2021/05/25 03:07:39;;;;;;;0.80;0.40;;;10.70;99.90;;;;;;4987798;28;20195;-78
2021/05/25 03:10:08;;;;;;;0.30;0.30;;;10.70;99.90;;;;;;4988048;28;20192;-78
2021/05/25 03:12:34;;;;;;;2.10;0.80;;;10.70;99.90;;;;;;5003581;28;20200;-77
2021/05/25 03:15:00;;;;;;;1.77;0.70;;;10.60;99.90;;;;;;4988041;28;20191;-76
2021/05/25 03:17:25;;;;;;;0.40;0.40;;;10.60;99.90;;;;;;4988367;28;20188;-78
2021/05/25 03:19:51;;;;;;;0.30;0.30;;;10.60;99.90;;;;;;4987261;28;20558;-76
2021/05/25 03:22:17;;;;;;;1.13;0.30;;;10.60;99.90;;;;;;4986244;28;20188;-78
2021/05/25 03:24:42;;;;;;;0.30;0.30;;;10.50;99.90;;;;;;4987480;28;20177;-79
2021/05/25 03:27:08;;;;;;;0.43;0.43;;;10.40;99.90;;;;;;4989099;28;20184;-79
2021/05/25 03:29:34;;;;;;;0.40;0.30;;;10.40;99.90;;;;;;4988647;28;20188;-79
2021/05/25 03:32:00;;;;;;;0.30;0.30;;;10.30;99.90;;;;;;5003712;28;20208;-78
2021/05/25 03:34:25;;;;;;;0.37;0.37;;;10.20;99.90;;;;;;5003769;28;20204;-78
2021/05/25 03:36:51;;;;;;;0.37;0.30;;;10.10;99.90;;;;;;4987057;28;20191;-77
2021/05/25 03:39:16;;;;;;;0.30;0.30;;;10.10;99.90;;;;;;4988965;28;20271;-79
2021/05/25 03:41:42;;;;;;;0.30;0.30;;;10.10;99.90;;;;;;4989091;28;21063;-78
2021/05/25 03:44:13;;;;;;;0.80;0.30;;;10.00;99.90;;;;;;4989077;28;20214;-79
2021/05/25 03:46:42;;;;;;;0.77;0.77;;;9.90;99.90;;;;;;4989175;28;20184;-79
2021/05/25 03:49:08;;;;;;;0.30;0.30;;;9.90;99.90;;;;;;4988924;28;20235;-77
2021/05/25 03:51:34;;;;;;;0.60;0.40;;;9.90;99.90;;;;;;4988417;28;20239;-77
2021/05/25 03:54:03;;;;;;;0.47;0.40;;;9.90;99.90;;;;;;5003848;28;20289;-79
2021/05/25 03:56:33;;;;;;;0.30;0.30;;;10.00;99.90;;;;;;4988702;28;20891;-79
2021/05/25 03:58:59;;;;;;;0.60;0.60;;;10.00;99.90;;;;;;4988883;28;20187;-79
2021/05/25 04:01:26;;;;;;;0.30;0.30;;;10.00;99.90;;;;;;4988658;28;20194;-79
2021/05/25 04:03:55;;;;;;;0.20;0.20;;;10.00;99.90;;;;;;4988648;28;20200;-79
2021/05/25 04:06:22;;;;;;;0.30;0.30;;;10.10;99.90;;;;;;4988136;28;20239;-79
2021/05/25 04:08:48;;;;;;;1.60;0.40;;;10.10;99.90;;;;;;4988128;28;20184;-80
2021/05/25 04:11:16;;;;;;;0.40;0.40;;;10.10;99.90;;;;;;4986853;28;20211;-78
2021/05/25 04:13:42;;;;;;;0.50;0.30;;;10.10;99.90;;;;;;4985646;28;20284;-79
2021/05/25 04:16:08;;;;;;;0.23;0.23;;;10.10;99.90;;;;;;4985599;28;20180;-78
2021/05/25 04:18:34;;;;;;;0.60;0.53;;;10.10;99.90;;;;;;4985812;28;20183;-78
2021/05/25 04:21:00;;;;;;;0.60;0.37;;;10.10;99.90;;;;;;4985149;28;20214;-78
2021/05/25 04:23:26;;;;;;;0.50;0.30;;;10.10;99.90;;;;;;4985571;28;20208;-80
2021/05/25 04:25:52;;;;;;;0.40;0.30;;;10.10;99.90;;;;;;4985670;28;20219;-78
2021/05/25 04:28:18;;;;;;;0.67;0.40;;;10.20;99.90;;;;;;4985918;28;20191;-79
2021/05/25 04:30:44;;;;;;;0.30;0.30;;;10.20;99.90;;;;;;5000502;28;20220;-78
2021/05/25 04:33:10;;;;;;;0.30;0.30;;;10.20;99.90;;;;;;4985653;28;20634;-79
2021/05/25 04:35:36;;;;;;;0.50;0.40;;;10.30;99.90;;;;;;4985369;28;20192;-78
2021/05/25 04:38:03;;;;;;;0.30;0.30;;;10.40;99.90;;;;;;4985571;28;20191;-79
2021/05/25 04:40:30;;;;;;;0.40;0.40;;;10.90;99.90;;;;;;4985642;28;20185;-79
2021/05/25 04:42:56;;;;;;;0.30;0.30;;;12.30;99.90;;;;;;4985382;28;20196;-78
2021/05/25 04:45:22;;;;;;;0.30;0.30;;;14.00;99.90;;;;;;4985318;28;20191;-79
2021/05/25 04:47:48;;;;;;;0.35;0.35;;;15.20;99.90;;;;;;4986324;28;20234;-78
2021/05/25 04:50:14;;;;;;;0.20;0.20;;;16.10;99.90;;;;;;4986537;28;20192;-79
2021/05/25 04:52:41;;;;;;;0.30;0.30;;;16.90;99.90;;;;;;4985397;28;20382;-79
2021/05/25 04:55:10;;;;;;;0.57;0.40;;;17.30;99.90;;;;;;4986299;28;20188;-79
2021/05/25 04:57:36;;;;;;;0.65;0.45;;;17.20;99.90;;;;;;4987278;28;20261;-79
2021/05/25 05:00:04;;;;;;;0.75;0.30;;;16.90;99.90;;;;;;4986746;28;20184;-79
2021/05/25 05:02:30;;;;;;;0.20;0.20;;;16.00;99.90;;;;;;4986157;28;20208;-79
2021/05/25 05:04:55;;;;;;;0.40;0.40;;;16.00;99.90;;;;;;4986431;28;20195;-78
2021/05/25 05:07:21;;;;;;;0.20;0.20;;;16.30;99.90;;;;;;4986720;28;20195;-79
2021/05/25 05:09:46;;;;;;;0.57;0.30;;;16.90;99.90;;;;;;5001856;28;20332;-78
2021/05/25 05:12:12;;;;;;;0.30;0.30;;;17.40;99.90;;;;;;5001360;28;20204;-79
2021/05/25 05:14:38;;;;;;;0.80;0.20;;;17.80;99.90;;;;;;4986091;28;20180;-79
2021/05/25 05:17:04;;;;;;;1.85;0.47;;;18.30;99.90;;;;;;4986853;28;20187;-79
2021/05/25 05:19:29;;;;;;;0.10;0.10;;;18.80;99.90;;;;;;4989945;28;20608;-79
2021/05/25 05:21:55;;;;;;;0.80;0.32;;;19.30;99.90;;;;;;4990912;28;20184;-79
2021/05/25 05:24:20;;;;;;;0.45;0.32;;;19.80;99.90;;;;;;5006714;28;20315;-79
2021/05/25 05:26:46;;;;;;;0.32;0.10;;;19.80;99.90;;;;;;4989920;28;20186;-79
2021/05/25 05:29:12;;;;;;;0.40;0.40;;;19.70;99.90;;;;;;4989863;28;20207;-80
2021/05/25 05:31:37;;;;;;;0.10;0.10;;;19.40;99.90;;;;;;4990482;28;20199;-79
2021/05/25 05:34:03;;;;;;;0.55;0.20;;;19.50;99.90;;;;;;4987246;28;22059;-79
2021/05/25 05:36:30;;;;;;;0.32;0.10;;;19.80;99.90;;;;;;4991174;28;20689;-79
2021/05/25 05:38:55;;;;;;;0.20;0.10;;;19.90;99.90;;;;;;4989108;28;20267;-79
2021/05/25 05:41:21;;;;;;;0.30;0.30;;;19.30;99.90;;;;;;4989575;28;20267;-79
2021/05/25 05:43:46;;;;;;;0.20;0.20;;;18.50;99.90;;;;;;4988611;28;20638;-80
2021/05/25 05:46:14;;;;;;;0.57;0.30;;;18.40;99.90;;;;;;5004060;28;20187;-79
2021/05/25 05:48:40;;;;;;;0.40;0.40;;;18.30;99.90;;;;;;4988697;28;20756;-79
2021/05/25 05:51:05;;;;;;;2.63;0.35;;;18.10;99.90;;;;;;4979646;28;20212;-79
2021/05/25 05:53:31;;;;;;;0.20;0.20;;;18.50;99.90;;;;;;4988152;28;20231;-79
2021/05/25 05:55:56;;;;;;;1.85;0.57;;;18.80;99.90;;;;;;4988970;28;20187;-79
2021/05/25 05:58:22;;;;;;;0.20;0.20;;;18.60;99.90;;;;;;4989856;28;20184;-79
2021/05/25 06:00:48;;;;;;;0.25;0.20;;;17.80;99.90;;;;;;5001786;28;20188;-79
2021/05/25 06:03:14;;;;;;;0.20;0.20;;;17.00;99.90;;;;;;4987995;28;20678;-78
2021/05/25 06:05:40;;;;;;;2.63;0.45;;;16.20;99.90;;;;;;4986864;28;20191;-77
2021/05/25 06:08:08;;;;;;;0.68;0.50;;;15.40;99.90;;;;;;4977917;28;20188;-79
2021/05/25 06:10:37;;;;;;;0.60;0.57;;;14.60;99.90;;;;;;4986526;28;20809;-78
2021/05/25 06:13:03;;;;;;;0.22;0.22;;;14.30;99.90;;;;;;4986424;28;20196;-79
2021/05/25 06:15:29;;;;;;;0.20;0.20;;;14.80;99.90;;;;;;4987019;28;20280;-79
2021/05/25 06:17:55;;;;;;;0.30;0.20;;;15.00;99.90;;;;;;4987421;28;20176;-79
2021/05/25 06:20:20;;;;;;;0.25;0.25;;;14.80;99.90;;;;;;5001973;28;20180;-79
2021/05/25 06:22:46;;;;;;;0.10;0.10;;;14.80;99.90;;;;;;5002275;28;20294;-78
2021/05/25 06:25:14;;;;;;;0.40;0.20;;;14.60;99.90;;;;;;4987024;28;20176;-78
2021/05/25 06:27:40;;;;;;;0.47;0.20;;;15.00;99.90;;;;;;5002464;28;20211;-79
2021/05/25 06:30:07;;;;;;;0.20;0.20;;;16.10;99.90;;;;;;4985167;28;20247;-79
2021/05/25 06:32:33;;;;;;;0.25;0.20;;;16.60;99.90;;;;;;4985621;28;20227;-80
2021/05/25 06:34:59;;;;;;;0.10;0.10;;;17.00;99.90;;;;;;4986840;28;20188;-82
2021/05/25 06:37:25;;;;;;;0.20;0.20;;;16.90;99.90;;;;;;4986670;28;20184;-78
2021/05/25 06:39:50;;;;;;;0.10;0.10;;;16.80;99.90;;;;;;4986902;28;20267;-78
2021/05/25 06:42:16;;;;;;;0.22;0.20;;;16.60;99.90;;;;;;4987059;28;20279;-80
2021/05/25 06:44:41;;;;;;;0.40;0.30;;;16.40;99.90;;;;;;4988085;28;20192;-80
2021/05/25 06:47:07;;;;;;;0.45;0.30;;;15.90;99.90;;;;;;4989347;28;20942;-79
2021/05/25 06:49:32;;;;;;;0.20;0.20;;;15.00;99.90;;;;;;4988470;28;20235;-75
2021/05/25 06:51:58;;;;;;;0.55;0.30;;;14.40;99.90;;;;;;4985296;28;20603;-74
2021/05/25 06:54:24;;;;;;;0.57;0.20;;;14.00;99.90;;;;;;4983726;28;20212;-72
2021/05/25 06:56:50;;;;;;;0.17;0.17;;;14.00;99.90;;;;;;4984097;28;20550;-73
2021/05/25 06:59:15;;;;;;;0.20;0.20;;;13.80;99.90;;;;;;4983094;28;20517;-77
2021/05/25 07:01:41;;;;;;;0.20;0.20;;;13.60;99.90;;;;;;4985239;28;20624;-74
2021/05/25 07:04:07;;;;;;;1.08;0.20;;;13.80;99.90;;;;;;4985542;28;20740;-78
2021/05/25 07:06:32;;;;;;;0.35;0.20;;;13.90;99.90;;;;;;5001303;28;20238;-81
2021/05/25 07:08:58;;;;;;;0.20;0.20;;;13.90;99.90;;;;;;5003111;28;20219;-79
2021/05/25 07:11:24;;;;;;;1.63;0.47;;;13.90;99.90;;;;;;4986740;28;20270;-77
2021/05/25 07:13:49;;;;;;;0.20;0.20;;;13.80;99.90;;;;;;5001282;28;20208;-77
2021/05/25 07:16:15;;;;;;;0.20;0.20;;;13.80;99.90;;;;;;5006140;28;20299;-77
2021/05/25 07:18:41;;;;;;;0.73;0.20;;;14.10;99.90;;;;;;4985985;28;20263;-80
2021/05/25 07:21:07;;;;;;;0.47;0.47;;;14.30;99.90;;;;;;4984430;28;20219;-82
2021/05/25 07:23:35;;;;;;;1.23;0.50;;;14.60;99.90;;;;;;4985530;28;20262;-80
2021/05/25 07:26:03;;;;;;;0.35;0.35;;;15.10;99.90;;;;;;4985467;28;20572;-82
2021/05/25 07:28:28;;;;;;;0.38;0.30;;;15.50;99.90;;;;;;4984996;28;20180;-76
2021/05/25 07:30:54;;;;;;;0.82;0.30;;;15.60;99.90;;;;;;4985030;28;20204;-80
2021/05/25 07:33:20;;;;;;;0.20;0.20;;;15.70;99.90;;;;;;4999872;28;20254;-79
2021/05/25 07:35:45;;;;;;;1.58;0.20;;;15.60;99.90;;;;;;5000066;28;20647;-80
2021/05/25 07:38:11;;;;;;;0.20;0.20;;;15.50;99.90;;;;;;4985691;28;20232;-76
2021/05/25 07:40:41;;;;;;;0.20;0.20;;;15.40;99.90;;;;;;4999232;28;20199;-78
2021/05/25 07:43:07;;;;;;;0.95;0.30;;;15.00;99.90;;;;;;4986188;28;20417;-79
2021/05/25 07:45:32;;;;;;;0.30;0.30;;;14.60;99.90;;;;;;4995148;28;20180;-77
2021/05/25 07:47:58;;;;;;;0.20;0.20;;;14.30;99.90;;;;;;4981768;28;20267;-77
2021/05/25 07:50:24;;;;;;;0.75;0.32;;;14.00;99.90;;;;;;4981726;28;20605;-75
2021/05/25 07:52:52;;;;;;;0.20;0.20;;;13.90;99.90;;;;;;4982118;28;20686;-74
2021/05/25 07:55:23;;;;;;;1.90;0.30;;;14.00;99.90;;;;;;4981191;28;20580;-76
2021/05/25 07:57:49;;;;;;;0.20;0.20;;;14.30;99.90;;;;;;4983063;28;20638;-77
2021/05/25 08:00:15;;;;;;;0.20;0.20;;;14.70;99.90;;;;;;4982620;28;20183;-77
2021/05/25 08:02:42;;;;;;;0.10;0.10;;;14.80;99.90;;;;;;4982357;28;20200;-76
2021/05/25 08:05:09;;;;;;;0.20;0.20;;;15.10;99.90;;;;;;4982197;28;20432;-77
2021/05/25 08:07:34;;;;;;;0.20;0.20;;;15.00;99.90;;;;;;4982604;28;20267;-77
2021/05/25 08:10:02;;;;;;;0.20;0.20;;;14.90;99.90;;;;;;4982235;28;20287;-77
2021/05/25 08:12:28;;;;;;;0.52;0.10;;;14.70;99.90;;;;;;4982470;28;20216;-77
2021/05/25 08:14:55;;;;;;;0.10;0.10;;;14.60;99.90;;;;;;4982282;28;20231;-76
2021/05/25 08:17:25;;;;;;;0.20;0.20;;;14.20;99.90;;;;;;4982499;28;20187;-77
2021/05/25 08:19:52;;;;;;;0.28;0.28;;;14.00;99.90;;;;;;4996985;28;20322;-76
2021/05/25 08:22:18;;;;;;;0.20;0.20;;;13.60;99.90;;;;;;4998213;28;20642;-76
2021/05/25 08:24:44;;;;;;;0.20;0.20;;;13.50;99.90;;;;;;4983963;28;20194;-78
2021/05/25 08:27:09;;;;;;;0.25;0.25;;;13.90;99.90;;;;;;4982894;28;20610;-75
2021/05/25 08:29:35;;;;;;;0.20;0.20;;;14.10;99.90;;;;;;4982854;28;20192;-77
2021/05/25 08:32:01;;;;;;;0.20;0.20;;;14.30;99.90;;;;;;4982665;28;20243;-77
2021/05/25 08:34:26;;;;;;;0.20;0.20;;;14.40;99.90;;;;;;4982207;28;20208;-77
2021/05/25 08:36:52;;;;;;;0.20;0.20;;;14.30;99.90;;;;;;4997596;28;20199;-77
2021/05/25 08:39:18;;;;;;;0.10;0.10;;;14.40;99.90;;;;;;4982127;28;20220;-77
2021/05/25 08:41:44;;;;;;;0.40;0.30;;;14.50;99.90;;;;;;4965341;28;20184;-77
2021/05/25 08:44:10;;;;;;;0.38;0.20;;;14.70;99.90;;;;;;4981511;28;20204;-76
2021/05/25 08:46:37;;;;;;;0.47;0.20;;;14.60;99.90;;;;;;4980593;28;20196;-76
2021/05/25 08:49:03;;;;;;;0.20;0.20;;;14.80;99.90;;;;;;4983416;28;20184;-77
2021/05/25 08:51:30;;;;;;;0.20;0.20;;;14.90;99.90;;;;;;4988386;28;20208;-76
2021/05/25 08:53:57;;;;;;;0.90;0.30;;;14.80;99.90;;;;;;5006695;28;20240;-76
2021/05/25 08:56:22;;;;;;;0.20;0.20;;;14.60;99.90;;;;;;4991752;28;20385;-79
2021/05/25 08:58:48;;;;;;;0.30;0.30;;;14.60;99.90;;;;;;4992293;28;21108;-77
2021/05/25 09:01:14;;;;;;;0.10;0.10;;;14.70;99.90;;;;;;4992310;28;20188;-77
2021/05/25 09:04:02;;;;;;;0.20;0.20;;;14.80;99.90;;;;;;4990799;28;20215;-79
2021/05/25 09:06:46;;;;;;;0.20;0.15;;;14.90;99.90;;;;;;4991000;28;20195;-77
2021/05/25 09:09:18;;;;;;;0.20;0.20;;;15.30;99.90;;;;;;4988687;28;20192;-78
2021/05/25 09:12:18;;;;;;;0.20;0.20;;;15.50;99.90;;;;;;4990267;28;20207;-75
2021/05/25 09:14:48;;;;;;;0.80;0.20;;;15.50;99.90;;;;;;4991511;28;20191;-76
2021/05/25 09:17:24;;;;;;;0.17;0.17;;;15.90;99.90;;;;;;5004366;28;20181;-76
2021/05/25 09:19:54;;;;;;;0.20;0.20;;;16.00;99.90;;;;;;4991872;28;20199;-79
2021/05/25 09:22:35;;;;;;;0.20;0.20;;;15.80;99.90;;;;;;5005990;28;20181;-78
2021/05/25 09:25:24;;;;;;;0.10;0.10;;;15.70;99.90;;;;;;4988089;28;20686;-78
2021/05/25 09:28:03;;;;;;;0.40;0.20;;;15.60;99.90;;;;;;4978719;28;20550;-78
2021/05/25 09:30:31;;;;;;;0.10;0.10;;;15.40;99.90;;;;;;5002962;28;20729;-78
2021/05/25 09:33:01;;;;;;;0.20;0.20;;;15.20;99.90;;;;;;4987280;28;20262;-78
2021/05/25 09:35:33;;;;;;;0.15;0.15;;;15.30;99.90;;;;;;4987535;28;20184;-78
2021/05/25 09:38:05;;;;;;;0.28;0.22;;;15.40;99.90;;;;;;5002742;28;20184;-78
2021/05/25 09:40:32;;;;;;;0.20;0.20;;;15.70;99.90;;;;;;4989404;28;20231;-78
2021/05/25 09:43:23;;;;;;;0.32;0.32;;;15.90;99.90;;;;;;4990879;28;20686;-79
2021/05/25 09:45:55;;;;;;;0.35;0.35;;;15.30;99.90;;;;;;4999223;28;20180;-77
2021/05/25 09:48:25;;;;;;;0.20;0.20;;;14.70;99.90;;;;;;4993475;28;20187;-75
2021/05/25 09:50:55;;;;;;;0.30;0.10;;;14.20;99.90;;;;;;4987861;28;20641;-74
2021/05/25 09:53:28;;;;;;;0.10;0.10;;;14.30;99.90;;;;;;4988501;28;20212;-79
2021/05/25 09:56:01;;;;;;;0.10;0.10;;;14.20;99.90;;;;;;4985606;28;20306;-78
2021/05/25 09:58:33;;;;;;;0.95;0.40;;;14.20;99.90;;;;;;4998417;28;20231;-78
2021/05/25 10:01:04;;;;;;;0.30;0.30;;;14.20;99.90;;;;;;4991305;28;20735;-77
2021/05/25 10:03:33;;;;;;;0.65;0.20;;;14.20;99.90;;;;;;4990104;28;20283;-78
2021/05/25 10:06:02;;;;;;;0.13;0.13;;;14.10;99.90;;;;;;5005519;28;20252;-78
2021/05/25 10:08:28;;;;;;;0.20;0.20;;;14.30;99.90;;;;;;5006250;28;20226;-75
2021/05/25 10:10:56;;;;;;;0.20;0.20;;;14.20;99.90;;;;;;4991903;28;20200;-78
2021/05/25 10:13:24;;;;;;;0.10;0.10;;;14.80;99.90;;;;;;4991282;28;20204;-75
2021/05/25 10:15:51;;;;;;;0.68;0.28;;;15.30;99.90;;;;;;5004958;28;20223;-76
2021/05/25 10:21:00;;;;;;;0.40;0.40;;;15.60;99.90;;;;;;4987618;28;20207;-77
2021/05/25 10:23:32;;;;;;;0.30;0.30;;;15.90;99.90;;;;;;4987269;28;20232;-78
2021/05/25 10:25:59;;;;;;;0.93;0.20;;;15.90;99.90;;;;;;4986970;28;20718;-77
2021/05/25 10:28:24;;;;;;;0.30;0.30;;;16.20;99.90;;;;;;4987326;28;20188;-77
2021/05/25 10:30:52;;;;;;;0.28;0.28;;;16.60;99.90;;;;;;4986557;28;21176;-77
2021/05/25 10:33:17;;;;;;;0.30;0.30;;;16.90;99.90;;;;;;4987206;28;20287;-77
2021/05/25 10:35:53;;;;;;;0.35;0.30;;;17.30;99.90;;;;;;5001994;28;20271;-77
2021/05/25 10:38:25;;;;;;;0.15;0.15;;;17.40;99.90;;;;;;4984886;28;20176;-77
2021/05/25 10:40:54;;;;;;;0.30;0.30;;;16.90;99.90;;;;;;5001428;28;20195;-76
2021/05/25 10:43:31;;;;;;;0.75;0.25;;;16.50;99.90;;;;;;5001594;28;20689;-78
2021/05/25 10:46:09;;;;;;;0.20;0.20;;;16.00;99.90;;;;;;4985832;28;20666;-78
2021/05/25 10:49:17;;;;;;;4.85;0.40;;;15.50;99.90;;;;;;4986653;28;20283;-79
2021/05/25 10:54:48;;;;;;;0.73;0.10;;;14.60;99.90;;;;;;4986312;28;20224;-77
2021/05/25 10:57:33;;;;;;;0.10;0.10;;;14.30;99.90;;;;;;5001788;28;20180;-78
2021/05/25 11:00:00;;;;;;;0.20;0.20;;;14.40;99.90;;;;;;4986990;28;20958;-77
2021/05/25 11:02:45;;;;;;;0.10;0.10;;;14.40;99.90;;;;;;4986195;28;20192;-78
2021/05/25 11:05:37;;;;;;;0.10;0.10;;;14.50;99.90;;;;;;4985506;28;20195;-77
2021/05/25 11:08:11;;;;;;;0.22;0.20;;;15.40;99.90;;;;;;4985941;28;20176;-78
2021/05/25 11:10:37;;;;;;;0.30;0.30;;;16.20;99.90;;;;;;4986255;28;20207;-78
2021/05/25 11:13:19;;;;;;;0.10;0.10;;;16.80;99.90;;;;;;4986253;28;20562;-77
2021/05/25 11:24:34;;;;;;;0.20;0.20;;;17.60;99.90;;;;;;4986023;28;20204;-78
2021/05/25 11:27:11;;;;;;;0.20;0.20;;;17.60;99.90;;;;;;5001000;28;20176;-77
2021/05/25 11:29:39;;;;;;;0.20;0.20;;;16.80;99.90;;;;;;4986389;28;20176;-76
2021/05/25 11:32:13;;;;;;;0.10;0.10;;;16.20;99.90;;;;;;4985478;28;20284;-77
2021/05/25 11:34:40;;;;;;;0.10;0.10;;;14.70;99.90;;;;;;4985834;28;20180;-76
2021/05/25 11:37:08;;;;;;;0.10;0.10;;;13.60;99.90;;;;;;5002145;28;20181;-76
2021/05/25 11:39:34;;;;;;;0.10;0.10;;;12.60;99.90;;;;;;5001895;28;20203;-77
2021/05/25 11:42:02;;;;;;;0.10;0.10;;;11.90;99.90;;;;;;5001947;28;20235;-77
2021/05/25 11:44:50;;;;;;;0.10;0.10;;;11.60;99.90;;;;;;4987292;28;20308;-77
2021/05/25 11:47:15;;;;;;;0.10;0.10;;;11.40;99.90;;;;;;4988063;28;20179;-75
2021/05/25 11:49:43;;;;;;;0.20;0.20;;;11.30;99.90;;;;;;4990896;28;20255;-77
2021/05/25 11:52:31;;;;;;;0.20;0.20;;;11.30;99.90;;;;;;5001307;28;20200;-78
2021/05/25 11:55:03;;;;;;;0.10;0.10;;;11.10;99.90;;;;;;4985279;28;21176;-76
2021/05/25 11:57:37;;;;;;;0.20;0.20;;;11.00;99.90;;;;;;4986031;28;20184;-79
2021/05/25 12:00:10;;;;;;;0.80;0.30;;;11.00;99.90;;;;;;4986088;28;20203;-77
2021/05/25 12:02:38;;;;;;;0.37;0.30;;;11.10;99.90;;;;;;4991833;28;20290;-78
2021/05/25 12:05:08;;;;;;;1.70;0.63;;;11.10;99.90;;;;;;4985074;28;20250;-77
2021/05/25 12:07:34;;;;;;;0.30;0.30;;;11.10;99.90;;;;;;5001132;28;20661;-76
2021/05/25 12:10:02;;;;;;;0.33;0.20;;;11.20;99.90;;;;;;4985466;28;20180;-78
2021/05/25 12:12:29;;;;;;;0.50;0.30;;;11.30;99.90;;;;;;4985437;28;20215;-78
2021/05/25 12:15:09;;;;;;;0.50;0.50;;;11.30;99.90;;;;;;4985922;28;20236;-78
2021/05/25 12:17:39;;;;;;;0.10;0.10;;;11.50;99.90;;;;;;4989314;28;20180;-77
2021/05/25 12:20:05;;;;;;;0.50;0.20;;;11.60;99.90;;;;;;4989803;28;20191;-77
2021/05/25 12:22:39;;;;;;;0.30;0.20;;;11.80;99.90;;;;;;4989389;28;20192;-78
2021/05/25 12:25:20;;;;;;;0.38;0.20;;;11.90;99.90;;;;;;4989500;28;20199;-77
2021/05/25 12:28:03;;;;;;;0.20;0.20;;;12.20;99.90;;;;;;4999321;28;20215;-79
2021/05/25 12:30:29;;;;;;;0.22;0.22;;;12.40;99.90;;;;;;4989293;28;20254;-78
2021/05/25 12:32:55;;;;;;;0.10;0.10;;;12.70;99.90;;;;;;4989389;28;20218;-77
2021/05/25 12:35:23;;;;;;;0.20;0.10;;;13.00;99.90;;;;;;4989572;28;20196;-78
2021/05/25 12:38:09;;;;;;;0.20;0.10;;;13.80;99.90;;;;;;4989396;28;20185;-78
2021/05/25 12:40:37;;;;;;;0.10;0.10;;;14.50;99.90;;;;;;4989498;28;20820;-77
2021/05/25 12:43:24;;;;;;;0.10;0.10;;;14.60;99.90;;;;;;4989317;28;20610;-78
2021/05/25 12:45:51;;;;;;;0.20;0.20;;;15.20;99.90;;;;;;4989674;28;20255;-78
2021/05/25 12:48:18;;;;;;;0.10;0.10;;;15.70;99.90;;;;;;4989545;28;20646;-77
2021/05/25 12:50:45;;;;;;;0.20;0.20;;;16.00;99.90;;;;;;4989393;28;20206;-78
2021/05/25 12:53:19;;;;;;;0.20;0.20;;;15.90;99.90;;;;;;4989116;28;20243;-78
2021/05/25 12:55:50;;;;;;;0.10;0.10;;;16.10;99.90;;;;;;4987657;28;20180;-78
2021/05/25 12:58:43;;;;;;;0.63;0.28;;;16.10;99.90;;;;;;5004138;28;20231;-77
2021/05/25 13:01:19;;;;;;;0.10;0.10;;;15.90;99.90;;;;;;4989098;28;20239;-78
2021/05/25 13:03:45;;;;;;;0.35;0.35;;;15.90;99.90;;;;;;4987656;28;20214;-79
2021/05/25 13:06:15;;;;;;;0.13;0.13;;;15.70;99.90;;;;;;4988167;28;20708;-78
2021/05/25 13:08:45;;;;;;;0.20;0.20;;;15.50;99.90;;;;;;4989069;28;20194;-77